createdAt,value
2019-02-24T00:00:03.929Z,2.33
2019-02-24T00:02:40.545Z,2.38
2019-02-24T00:05:15.181Z,2.13
2019-02-24T00:07:50.135Z,2.23
2019-02-24T00:10:24.829Z,1.95
2019-02-24T00:12:59.559Z,1.81
2019-02-24T00:15:34.442Z,1.81
2019-02-24T00:18:09.081Z,1.81
2019-02-24T00:20:44.161Z,1.68
2019-02-24T00:23:18.808Z,1.71
2019-02-24T00:25:53.319Z,1.78
2019-02-24T00:28:27.876Z,1.59
2019-02-24T00:31:02.491Z,1.50
2019-02-24T00:33:37.156Z,1.54
2019-02-24T00:36:11.688Z,1.54
2019-02-24T00:38:45.269Z,1.16
2019-02-24T00:41:19.637Z,1.24
2019-02-24T00:43:53.277Z,1.09
2019-02-24T00:46:27.835Z,1.08
2019-02-24T00:49:02.320Z,0.92
2019-02-24T00:51:37.815Z,1.01
2019-02-24T00:54:12.626Z,1.05
2019-02-24T00:56:48.128Z,1.00
2019-02-24T00:59:22.638Z,0.90
2019-02-24T01:01:57.025Z,0.76
2019-02-24T01:04:31.848Z,0.76
2019-02-24T01:07:06.807Z,0.70
2019-02-24T01:09:41.478Z,0.79
2019-02-24T01:12:16.187Z,0.71
2019-02-24T01:14:51.439Z,0.71
2019-02-24T01:17:25.766Z,0.55
2019-02-24T01:19:59.487Z,0.45
2019-02-24T01:22:34.110Z,0.80
2019-02-24T01:25:08.915Z,0.80
2019-02-24T01:27:44.637Z,0.65
2019-02-24T01:30:18.480Z,0.67
2019-02-24T01:32:58.521Z,0.40
2019-02-24T01:35:35.334Z,0.35
2019-02-24T01:38:09.817Z,0.36
2019-02-24T01:40:44.532Z,0.37
2019-02-24T01:43:18.997Z,0.77
2019-02-24T01:45:53.745Z,0.77
2019-02-24T01:48:28.569Z,0.63
2019-02-24T01:51:02.283Z,0.14
2019-02-24T01:53:36.885Z,0.14
2019-02-24T01:56:11.438Z,0.19
2019-02-24T01:58:46.082Z,0.15
2019-02-24T02:01:23.579Z,0.15
2019-02-24T02:03:59.506Z,0.13
2019-02-24T02:06:34.119Z,-0.01
2019-02-24T02:09:08.710Z,-0.10
2019-02-24T02:11:43.833Z,-0.12
2019-02-24T02:14:18.506Z,-0.06
2019-02-24T02:16:53.320Z,-0.07
2019-02-24T02:22:20.649Z,-0.01
2019-02-24T02:24:55.657Z,-0.21
2019-02-24T02:27:29.491Z,-0.21
2019-02-24T02:30:05.117Z,-0.28
2019-02-24T02:32:40.831Z,-0.38
2019-02-24T02:35:15.405Z,-0.45
2019-02-24T02:37:49.819Z,-0.46
2019-02-24T02:40:24.528Z,-0.39
2019-02-24T02:43:00.029Z,-0.25
2019-02-24T02:45:34.579Z,-0.25
2019-02-24T02:48:08.274Z,-0.41
2019-02-24T02:50:45.682Z,-0.65
2019-02-24T02:53:19.507Z,-0.62
2019-02-24T02:55:54.066Z,-0.55
2019-02-24T02:58:28.586Z,-0.65
2019-02-24T03:01:02.285Z,-0.58
2019-02-24T03:03:36.944Z,-0.66
2019-02-24T03:06:25.793Z,-0.67
2019-02-24T03:09:00.535Z,-0.41
2019-02-24T03:11:34.999Z,-0.47
2019-02-24T03:14:09.723Z,-0.61
2019-02-24T03:16:44.045Z,-0.76
2019-02-24T03:19:18.704Z,-0.63
2019-02-24T03:21:52.494Z,-0.40
2019-02-24T03:24:26.870Z,-0.60
2019-02-24T03:27:03.321Z,-0.54
2019-02-24T03:29:38.000Z,-0.69
2019-02-24T03:32:12.325Z,-0.56
2019-02-24T03:34:46.833Z,-0.58
2019-02-24T03:37:24.184Z,-0.45
2019-02-24T03:39:58.665Z,-0.48
2019-02-24T03:42:33.160Z,-0.78
2019-02-24T03:45:11.322Z,-0.78
2019-02-24T03:47:45.612Z,-0.76
2019-02-24T03:50:20.283Z,-0.70
2019-02-24T03:52:54.989Z,-0.72
2019-02-24T03:55:30.067Z,-0.87
2019-02-24T03:58:04.551Z,-0.91
2019-02-24T04:00:39.065Z,-0.66
2019-02-24T04:03:13.657Z,-0.66
2019-02-24T04:05:48.684Z,-0.67
2019-02-24T04:08:22.512Z,-0.53
2019-02-24T04:10:57.518Z,-0.43
2019-02-24T04:13:32.323Z,-0.78
2019-02-24T04:16:06.783Z,-0.78
2019-02-24T04:18:41.564Z,-0.76
2019-02-24T04:21:18.537Z,-0.89
2019-02-24T04:23:54.135Z,-1.03
2019-02-24T04:26:28.596Z,-1.03
2019-02-24T04:29:03.079Z,-0.77
2019-02-24T04:31:37.636Z,-0.77
2019-02-24T04:34:11.475Z,-0.80
2019-02-24T04:36:46.108Z,-0.97
2019-02-24T04:39:20.815Z,-0.97
2019-02-24T04:41:55.310Z,-0.60
2019-02-24T04:44:31.661Z,-0.44
2019-02-24T04:47:05.505Z,-0.27
2019-02-24T04:49:39.538Z,-0.63
2019-02-24T04:52:14.317Z,-0.62
2019-02-24T04:54:48.963Z,-0.54
2019-02-24T04:57:23.666Z,-0.54
2019-02-24T04:59:58.575Z,-0.78
2019-02-24T05:02:32.997Z,-0.90
2019-02-24T05:05:07.561Z,-0.90
2019-02-24T05:07:42.104Z,-0.64
2019-02-24T05:10:16.528Z,-0.64
2019-02-24T05:12:50.894Z,-0.77
2019-02-24T05:15:25.587Z,-0.92
2019-02-24T05:18:00.544Z,-0.75
2019-02-24T05:20:35.000Z,-0.89
2019-02-24T05:23:09.816Z,-0.89
2019-02-24T05:25:45.468Z,-0.82
2019-02-24T05:28:20.089Z,-0.93
2019-02-24T05:30:54.569Z,-0.93
2019-02-24T05:33:31.810Z,-0.95
2019-02-24T05:36:06.440Z,-0.88
2019-02-24T05:38:41.006Z,-0.95
2019-02-24T05:41:18.385Z,-1.27
2019-02-24T05:43:52.966Z,-1.39
2019-02-24T05:46:27.304Z,-1.47
2019-02-24T05:49:02.498Z,-1.46
2019-02-24T05:51:37.058Z,-1.02
2019-02-24T05:54:11.661Z,-1.02
2019-02-24T05:56:46.048Z,-0.89
2019-02-24T05:59:22.075Z,-0.89
2019-02-24T06:01:58.207Z,-0.82
2019-02-24T06:04:32.972Z,-0.96
2019-02-24T06:07:07.444Z,-1.04
2019-02-24T06:09:41.833Z,-0.98
2019-02-24T06:12:17.431Z,-1.24
2019-02-24T06:14:51.964Z,-1.07
2019-02-24T06:17:26.626Z,-1.03
2019-02-24T06:20:02.322Z,-1.22
2019-02-24T06:22:37.321Z,-1.04
2019-02-24T06:25:14.112Z,-1.09
2019-02-24T06:27:48.654Z,-0.91
2019-02-24T06:30:23.060Z,-0.62
2019-02-24T06:32:57.649Z,-0.62
2019-02-24T06:35:31.300Z,-0.40
2019-02-24T06:38:05.802Z,-0.36
2019-02-24T06:40:40.476Z,-0.23
2019-02-24T06:43:15.315Z,-0.06
2019-02-24T06:45:49.823Z,-0.06
2019-02-24T06:48:24.116Z,-0.28
2019-02-24T06:51:01.759Z,-0.40
2019-02-24T06:53:36.308Z,-0.48
2019-02-24T06:56:10.808Z,-0.12
2019-02-24T06:58:45.343Z,0.06
2019-02-24T07:01:19.820Z,-0.01
2019-02-24T07:03:54.704Z,0.31
2019-02-24T07:06:29.326Z,0.11
2019-02-24T07:09:05.770Z,-0.01
2019-02-24T07:11:40.463Z,0.21
2019-02-24T07:14:15.076Z,0.58
2019-02-24T07:16:52.406Z,0.58
2019-02-24T07:19:26.827Z,0.63
2019-02-24T07:22:01.533Z,0.60
2019-02-24T07:24:36.737Z,0.66
2019-02-24T07:27:13.221Z,0.66
2019-02-24T07:29:49.810Z,1.07
2019-02-24T07:32:24.307Z,1.20
2019-02-24T07:35:00.221Z,1.15
2019-02-24T07:37:37.525Z,1.31
2019-02-24T07:40:12.369Z,1.40
2019-02-24T07:42:47.055Z,1.40
2019-02-24T07:45:26.307Z,1.41
2019-02-24T07:48:01.150Z,1.59
2019-02-24T07:50:35.856Z,1.75
2019-02-24T07:53:11.068Z,1.85
2019-02-24T07:55:46.324Z,1.82
2019-02-24T07:58:22.512Z,2.17
2019-02-24T08:00:56.705Z,2.05
2019-02-24T08:03:36.071Z,2.17
2019-02-24T08:06:08.319Z,2.46
2019-02-24T08:08:42.801Z,2.46
2019-02-24T08:11:17.483Z,2.63
2019-02-24T08:13:52.805Z,2.69
2019-02-24T08:16:27.539Z,2.73
2019-02-24T08:19:02.527Z,3.16
2019-02-24T08:21:37.570Z,3.16
2019-02-24T08:24:11.485Z,3.44
2019-02-24T08:26:46.538Z,3.82
2019-02-24T08:29:21.179Z,4.63
2019-02-24T08:31:56.318Z,7.75
2019-02-24T08:34:30.821Z,10.92
2019-02-24T08:37:06.144Z,13.62
2019-02-24T08:39:41.151Z,15.83
2019-02-24T08:42:15.880Z,17.92
2019-02-24T08:44:50.811Z,18.66
2019-02-24T08:47:25.737Z,19.62
2019-02-24T08:50:00.309Z,20.39
2019-02-24T08:52:35.187Z,20.57
2019-02-24T08:55:10.187Z,20.44
2019-02-24T08:57:45.321Z,21.35
2019-02-24T09:00:20.056Z,21.16
2019-02-24T09:02:54.828Z,21.11
2019-02-24T09:05:29.853Z,20.89
2019-02-24T09:08:04.785Z,21.71
2019-02-24T09:10:39.573Z,21.71
2019-02-24T09:13:13.264Z,22.15
2019-02-24T09:15:47.939Z,22.15
2019-02-24T09:18:22.568Z,22.27
2019-02-24T09:20:57.325Z,22.47
2019-02-24T09:23:32.074Z,22.47
2019-02-24T09:26:07.156Z,23.08
2019-02-24T09:28:42.139Z,23.54
2019-02-24T09:31:17.100Z,23.84
2019-02-24T09:33:51.971Z,24.91
2019-02-24T09:36:26.910Z,25.09
2019-02-24T09:39:01.609Z,25.58
2019-02-24T09:41:38.110Z,24.82
2019-02-24T09:44:12.883Z,25.74
2019-02-24T09:46:47.548Z,24.64
2019-02-24T09:49:21.459Z,24.73
2019-02-24T09:51:57.026Z,24.44
2019-02-24T09:54:33.116Z,25.02
2019-02-24T09:57:08.481Z,24.46
2019-02-24T09:59:42.943Z,25.52
2019-02-24T10:02:22.766Z,25.52
2019-02-24T10:04:58.655Z,25.07
2019-02-24T10:07:33.501Z,24.25
2019-02-24T10:10:12.630Z,23.55
2019-02-24T10:12:46.694Z,23.55
2019-02-24T10:15:21.993Z,23.44
2019-02-24T10:17:56.834Z,24.28
2019-02-24T10:20:32.323Z,24.27
2019-02-24T10:23:07.309Z,21.71
2019-02-24T10:25:42.309Z,23.27
2019-02-24T10:28:17.516Z,23.27
2019-02-24T10:30:52.271Z,24.87
2019-02-24T10:33:26.827Z,24.87
2019-02-24T10:36:01.743Z,25.17
2019-02-24T10:38:36.610Z,25.86
2019-02-24T10:41:10.927Z,26.80
2019-02-24T10:43:46.068Z,27.09
2019-02-24T10:46:20.682Z,26.46
2019-02-24T10:49:03.132Z,26.77
2019-02-24T10:51:34.014Z,24.66
2019-02-24T10:54:09.066Z,25.92
2019-02-24T10:56:47.594Z,24.85
2019-02-24T10:59:22.319Z,24.96
2019-02-24T11:01:57.091Z,25.20
2019-02-24T11:04:31.803Z,24.99
2019-02-24T11:07:06.685Z,24.63
2019-02-24T11:09:41.458Z,25.06
2019-02-24T11:12:16.032Z,26.93
2019-02-24T11:14:50.589Z,26.93
2019-02-24T11:17:25.317Z,27.84
2019-02-24T11:20:00.004Z,27.73
2019-02-24T11:22:35.152Z,28.13
2019-02-24T11:25:10.540Z,28.80
2019-02-24T11:27:44.543Z,28.88
2019-02-24T11:30:18.517Z,27.81
2019-02-24T11:32:53.448Z,27.81
2019-02-24T11:35:28.303Z,27.96
2019-02-24T11:38:03.546Z,27.96
2019-02-24T11:40:39.536Z,27.71
2019-02-24T11:43:15.397Z,27.44
2019-02-24T11:45:54.989Z,28.70
2019-02-24T11:48:29.114Z,28.70
2019-02-24T11:51:04.365Z,27.65
2019-02-24T11:53:38.638Z,27.47
2019-02-24T11:56:12.844Z,26.58
2019-02-24T11:58:54.230Z,27.25
2019-02-24T12:01:28.687Z,27.03
2019-02-24T12:04:04.119Z,26.74
2019-02-24T12:06:45.486Z,25.94
2019-02-24T12:09:20.567Z,26.54
2019-02-24T12:11:57.142Z,25.58
2019-02-24T12:14:31.549Z,25.58
2019-02-24T12:17:10.010Z,26.30
2019-02-24T12:19:47.490Z,26.33
2019-02-24T12:22:52.729Z,26.33
2019-02-24T12:25:29.626Z,24.86
2019-02-24T12:28:03.142Z,25.86
2019-02-24T12:30:46.014Z,25.80
2019-02-24T12:33:26.104Z,25.74
2019-02-24T12:36:00.564Z,25.81
2019-02-24T12:38:34.620Z,25.30
2019-02-24T12:41:18.250Z,24.92
2019-02-24T12:43:54.521Z,24.92
2019-02-24T12:46:35.511Z,25.09
2019-02-24T12:49:09.903Z,24.68
2019-02-24T12:51:44.480Z,24.68
2019-02-24T12:54:18.895Z,23.42
2019-02-24T12:56:53.876Z,23.42
2019-02-24T12:59:28.526Z,22.67
2019-02-24T13:02:05.624Z,22.78
2019-02-24T13:04:37.967Z,22.78
2019-02-24T13:07:13.663Z,23.06
2019-02-24T13:09:48.536Z,22.91
2019-02-24T13:12:22.773Z,21.56
2019-02-24T13:14:58.461Z,21.56
2019-02-24T13:17:32.604Z,21.43
2019-02-24T13:20:10.092Z,21.44
2019-02-24T13:22:44.687Z,21.44
2019-02-24T13:25:21.495Z,21.37
2019-02-24T13:27:57.939Z,20.72
2019-02-24T13:30:33.735Z,20.72
2019-02-24T13:33:08.398Z,19.75
2019-02-24T13:35:44.537Z,18.84
2019-02-24T13:38:26.511Z,18.75
2019-02-24T13:41:06.014Z,18.75
2019-02-24T13:43:44.357Z,18.28
2019-02-24T13:46:20.747Z,17.83
2019-02-24T13:48:57.570Z,17.44
2019-02-24T13:51:36.462Z,17.75
2019-02-24T13:54:25.941Z,17.25
2019-02-24T13:57:24.954Z,17.25
2019-02-24T14:00:08.535Z,17.52
2019-02-24T14:02:44.336Z,17.80
2019-02-24T14:05:20.966Z,17.80
2019-02-24T14:08:02.752Z,17.76
2019-02-24T14:10:41.941Z,17.75
2019-02-24T14:13:40.990Z,17.75
2019-02-24T14:16:25.562Z,17.70
2019-02-24T14:18:58.360Z,17.37
2019-02-24T14:21:32.787Z,17.02
2019-02-24T14:24:10.404Z,17.13
2019-02-24T14:26:50.297Z,17.39
2019-02-24T14:29:24.736Z,17.31
2019-02-24T14:31:59.740Z,17.32
2019-02-24T14:34:35.674Z,17.44
2019-02-24T14:37:11.506Z,17.16
2019-02-24T14:39:45.500Z,17.26
2019-02-24T14:42:21.156Z,17.14
2019-02-24T14:44:55.546Z,17.14
2019-02-24T14:47:29.253Z,17.15
2019-02-24T14:50:06.320Z,17.30
2019-02-24T14:52:40.752Z,16.97
2019-02-24T14:55:14.115Z,16.92
2019-02-24T14:57:48.519Z,16.70
2019-02-24T15:00:22.892Z,16.70
2019-02-24T15:02:57.553Z,16.97
2019-02-24T15:05:32.318Z,16.67
2019-02-24T15:08:08.265Z,17.04
2019-02-24T15:10:42.417Z,16.76
2019-02-24T15:13:17.754Z,16.34
2019-02-24T15:15:52.030Z,16.34
2019-02-24T15:18:25.977Z,16.49
2019-02-24T15:21:00.066Z,16.24
2019-02-24T15:23:34.401Z,16.36
2019-02-24T15:26:10.326Z,16.38
2019-02-24T15:28:55.612Z,16.33
2019-02-24T15:31:30.697Z,15.94
2019-02-24T15:34:06.467Z,15.63
2019-02-24T15:36:40.783Z,16.02
2019-02-24T15:39:14.965Z,16.02
2019-02-24T15:41:49.309Z,15.84
2019-02-24T15:44:26.052Z,15.81
2019-02-24T15:47:01.914Z,15.53
2019-02-24T15:49:38.163Z,15.61
2019-02-24T15:52:12.273Z,15.32
2019-02-24T15:54:46.901Z,15.54
2019-02-24T15:57:23.158Z,15.39
2019-02-24T15:59:57.514Z,15.27
2019-02-24T16:02:32.054Z,15.46
2019-02-24T16:05:08.573Z,15.40
2019-02-24T16:07:45.258Z,14.84
2019-02-24T16:10:19.887Z,14.84
2019-02-24T16:12:54.222Z,14.50
2019-02-24T16:15:28.571Z,14.69
2019-02-24T16:18:02.516Z,14.58
2019-02-24T16:20:36.497Z,14.58
2019-02-24T16:23:12.620Z,14.45
2019-02-24T16:25:48.463Z,14.47
2019-02-24T16:28:22.613Z,14.51
2019-02-24T16:30:56.059Z,14.02
2019-02-24T16:33:30.813Z,14.02
2019-02-24T16:36:06.929Z,13.96
2019-02-24T16:38:41.709Z,13.80
2019-02-24T16:41:15.029Z,13.56
2019-02-24T16:43:49.917Z,13.70
2019-02-24T16:46:24.759Z,13.30
2019-02-24T16:48:59.301Z,13.34
2019-02-24T16:51:35.758Z,13.24
2019-02-24T16:54:10.521Z,13.02
2019-02-24T16:56:44.820Z,12.91
2019-02-24T16:59:20.918Z,12.95
2019-02-24T17:01:56.591Z,13.08
2019-02-24T17:04:34.321Z,12.83
2019-02-24T17:07:10.521Z,12.81
2019-02-24T17:10:05.837Z,12.89
2019-02-24T17:12:41.708Z,12.89
2019-02-24T17:15:15.816Z,12.77
2019-02-24T17:17:50.468Z,12.53
2019-02-24T17:20:28.546Z,12.49
2019-02-24T17:23:02.214Z,12.16
2019-02-24T17:25:38.494Z,12.16
2019-02-24T17:28:12.583Z,12.07
2019-02-24T17:30:46.880Z,12.00
2019-02-24T17:33:29.728Z,12.00
2019-02-24T17:35:59.507Z,11.97
2019-02-24T17:38:33.598Z,11.89
2019-02-24T17:41:08.408Z,11.73
2019-02-24T17:43:42.848Z,11.48
2019-02-24T17:46:21.037Z,11.49
2019-02-24T17:48:55.514Z,11.46
2019-02-24T17:51:31.754Z,11.29
2019-02-24T17:54:05.509Z,11.29
2019-02-24T17:56:39.900Z,11.21
2019-02-24T17:59:17.011Z,11.21
2019-02-24T18:01:53.692Z,10.93
2019-02-24T18:04:29.613Z,10.86
2019-02-24T18:07:04.305Z,11.06
2019-02-24T18:09:41.504Z,11.06
2019-02-24T18:12:49.519Z,10.74
2019-02-24T18:15:04.144Z,10.62
2019-02-24T18:17:40.440Z,10.45
2019-02-24T18:20:15.471Z,10.35
2019-02-24T18:22:50.304Z,10.49
2019-02-24T18:25:25.972Z,10.49
2019-02-24T18:28:00.027Z,10.15
2019-02-24T18:30:34.490Z,9.96
2019-02-24T18:33:08.638Z,9.67
2019-02-24T18:35:42.979Z,9.73
2019-02-24T18:38:17.292Z,9.70
2019-02-24T18:40:51.339Z,9.69
2019-02-24T18:43:25.853Z,9.96
2019-02-24T18:46:00.338Z,9.81
2019-02-24T18:48:35.358Z,9.83
2019-02-24T18:51:12.180Z,9.65
2019-02-24T18:53:46.545Z,9.45
2019-02-24T18:56:20.980Z,9.41
2019-02-24T18:58:55.579Z,9.41
2019-02-24T19:01:42.016Z,9.62
2019-02-24T19:04:21.473Z,9.32
2019-02-24T19:06:59.527Z,9.18
2019-02-24T19:09:34.041Z,8.95
2019-02-24T19:12:10.710Z,8.95
2019-02-24T19:14:45.948Z,8.74
2019-02-24T19:17:20.574Z,8.57
2019-02-24T19:19:54.734Z,8.23
2019-02-24T19:22:32.236Z,8.23
2019-02-24T19:27:52.574Z,8.10
2019-02-24T19:30:26.390Z,8.15
2019-02-24T19:33:04.097Z,8.25
2019-02-24T19:35:40.149Z,7.82
2019-02-24T19:38:15.102Z,7.26
2019-02-24T19:41:06.467Z,7.12
2019-02-24T19:43:30.865Z,7.12
2019-02-24T19:46:06.084Z,7.06
2019-02-24T19:48:44.319Z,6.76
2019-02-24T19:51:20.342Z,6.69
2019-02-24T19:53:54.660Z,6.69
2019-02-24T19:56:29.154Z,6.60
2019-02-24T19:59:05.478Z,6.60
2019-02-24T20:01:42.574Z,6.86
2019-02-24T20:04:17.625Z,6.86
2019-02-24T20:06:54.872Z,6.85
2019-02-24T20:09:30.659Z,6.64
2019-02-24T20:12:04.656Z,6.44
2019-02-24T20:14:39.005Z,6.37
2019-02-24T20:17:13.525Z,6.37
2019-02-24T20:19:47.894Z,6.36
2019-02-24T20:22:22.651Z,6.34
2019-02-24T20:25:01.981Z,6.30
2019-02-24T20:27:40.819Z,6.42
2019-02-24T20:30:29.877Z,6.08
2019-02-24T20:33:06.542Z,5.77
2019-02-24T20:35:41.620Z,5.40
2019-02-24T20:38:17.041Z,5.25
2019-02-24T20:40:53.442Z,5.25
2019-02-24T20:43:27.509Z,5.23
2019-02-24T20:46:02.055Z,5.35
2019-02-24T20:48:36.523Z,5.35
2019-02-24T20:51:11.153Z,5.25
2019-02-24T20:53:45.485Z,5.25
2019-02-24T20:56:20.314Z,5.08
2019-02-24T20:58:55.013Z,5.08
2019-02-24T21:01:31.502Z,5.12
2019-02-24T21:04:05.868Z,4.81
2019-02-24T21:06:40.853Z,4.80
2019-02-24T21:09:16.100Z,4.91
2019-02-24T21:11:51.526Z,5.06
2019-02-24T21:14:26.411Z,4.98
2019-02-24T21:17:01.318Z,4.86
2019-02-24T21:20:09.225Z,4.86
2019-02-24T21:23:09.486Z,4.85
2019-02-24T21:25:45.024Z,4.61
2019-02-24T21:28:20.309Z,4.89
2019-02-24T21:30:55.028Z,4.83
2019-02-24T21:33:29.834Z,4.58
2019-02-24T21:36:04.549Z,4.53
2019-02-24T21:38:39.132Z,4.49
2019-02-24T21:41:13.992Z,4.25
2019-02-24T21:43:48.751Z,4.13
2019-02-24T21:46:23.595Z,4.09
2019-02-24T21:48:58.165Z,3.98
2019-02-24T21:51:32.959Z,3.68
2019-02-24T21:54:08.009Z,3.80
2019-02-24T21:56:42.571Z,3.80
2019-02-24T21:59:16.677Z,3.93
2019-02-24T22:01:50.505Z,4.16
2019-02-24T22:04:29.578Z,4.08
2019-02-24T22:07:04.319Z,4.09
2019-02-24T22:09:38.796Z,4.09
2019-02-24T22:12:13.981Z,4.15
2019-02-24T22:14:48.524Z,4.08
2019-02-24T22:17:22.280Z,4.09
2019-02-24T22:19:57.078Z,3.94
2019-02-24T22:22:31.691Z,4.03
2019-02-24T22:25:08.321Z,3.98
2019-02-24T22:27:43.033Z,3.89
2019-02-24T22:30:17.882Z,3.82
2019-02-24T22:32:52.330Z,3.64
2019-02-24T22:35:28.650Z,3.40
2019-02-24T22:38:03.053Z,3.35
2019-02-24T22:40:44.333Z,3.58
2019-02-24T22:43:19.385Z,3.67
2019-02-24T22:45:54.049Z,3.21
2019-02-24T22:48:28.547Z,3.14
2019-02-24T22:51:03.042Z,3.22
2019-02-24T22:53:37.819Z,3.20
2019-02-24T22:56:12.328Z,3.28
2019-02-24T22:58:47.116Z,3.27
2019-02-24T23:01:27.733Z,2.92
2019-02-24T23:04:13.020Z,3.13
2019-02-24T23:06:47.325Z,3.13
2019-02-24T23:09:21.835Z,3.22
2019-02-24T23:11:56.523Z,3.43
2019-02-24T23:14:31.176Z,3.28
2019-02-24T23:17:05.780Z,3.28
2019-02-24T23:19:40.537Z,3.06
2019-02-24T23:22:15.723Z,2.98
2019-02-24T23:24:50.344Z,2.98
2019-02-24T23:27:26.689Z,2.79
2019-02-24T23:30:00.850Z,2.59
2019-02-24T23:32:35.557Z,2.76
2019-02-24T23:35:09.605Z,2.92
2019-02-24T23:37:43.412Z,2.92
2019-02-24T23:40:17.882Z,2.99
2019-02-24T23:42:52.650Z,2.90
2019-02-24T23:45:26.464Z,2.78
2019-02-24T23:48:01.352Z,2.71
2019-02-24T23:50:36.144Z,2.68
2019-02-24T23:53:16.800Z,2.91
2019-02-24T23:55:51.514Z,2.81
2019-02-24T23:58:27.849Z,2.69
